Брест

Карта отелей и гостиниц, располагающихся рядом с аэропортом Брест :

Брест Брестская область 52° 6' 29.7" N, 23° 53' 46.5" E
Код аэродрома ИКАО
UMBB
Код аэродрома RU
УМББ
Координаты
N52.10825° E023.89625°
Превышение над уровнем моря
143
Основная полоса
11/29
Курс магнитный
107,9/287,9
Длина основной ВПП
2620
Ширина основной ВПП
42
Покрытие основной ВПП
Твёрдое
Освещение ВПП
Постоянное
Тип: 
Аэродром
Класс аэродрома: 
Международный
Принадлежность: 
ГА
Статус: 
Действующий
Сайт: 
www.ban.by
E-mail аэродрома: 
fbrest@ban.by
Страна: 
Беларусь
Регион: 
Брестская область
Дополнительная информация: 
Оператор: Брестский филиал ГП "Белаэронавигация". Принимает ВС до 191 тонны.
Погода: 

Авиационная погода в Бресте

Регион: 
Погода METAR: 
UMBB 221200Z 33007MPS 6000 SCT025CB M01/M05 Q1015 NOSIG
Время наблюдения
2022-01-22T12:00:00Z
Температура C
-1.0
Точка росы
-5.0
Направление ветра
330
Скорость ветра (узлы)
14
Метео видимость
3.73
Облачность
SCT
Нижняя граница облачности (футы)
2500
Явления погоды
Условия полета
MVFR
Аэропорт подробнее: 
SCT – разбросанная отдельная облачность;

Найти трансфер

С помощью этой формы Вы можете найти трансфер из аэропорта Брест в город, аэропорт или вокзал:

Погода в аэропортах:

Авиационная погода в Череповце

Регион: 
Погода METAR: 
ULWC 221800Z 06002MPS 9999 -SN BKN010 M09/M11 Q1018 R03/490536 NOSIG RMK QFE753/1005
Время наблюдения
2022-01-22T18:00:00Z
Температура C
-9.0
Точка росы
-11.0
Направление ветра
60
Скорость ветра (узлы)
4
Метео видимость
6.21
Облачность
BKN
Нижняя граница облачности (футы)
1000
Явления погоды
-SN
Условия полета
MVFR
Аэропорт подробнее: 
BKN – значительная (рассеянная, разорванная) облачность;
-SN – слабый снег;

Авиационная погода в Зонгулдаке

Регион: 
Погода METAR: 
LTAS 221150Z 11001KT 2200 -SHRASN BR SCT003 BKN025 BKN080 02/01 Q1014
Время наблюдения
2022-01-22T11:50:00Z
Температура C
2.0
Точка росы
1.0
Направление ветра
110
Скорость ветра (узлы)
1
Метео видимость
1.37
Облачность
SCT
BKN
BKN
Нижняя граница облачности (футы)
300
2500
8000
Явления погоды
-SHRA -SHSN BR
Условия полета
IFR
SCT – разбросанная отдельная облачность; BKN – значительная (рассеянная, разорванная) облачность;
-SHRA - слабый ливневой дождь; -SHSN - слабый ливневой снег; BR – дымка (видимость от 1 до 9 км);

Авиационная погода в Магнитогорске

Погода METAR: 
USCM 221800Z 31002MPS 4700 BR SCT040 M20/M21 Q1028 R18/090060 TEMPO 0300 FZFG VV002 RMK QFE733
Время наблюдения
2022-01-22T18:00:00Z
Температура C
-20.0
Точка росы
-21.0
Направление ветра
310
Скорость ветра (узлы)
4
Метео видимость
2.92
Облачность
SCT
Нижняя граница облачности (футы)
4000
Явления погоды
BR
Условия полета
IFR
Аэропорт подробнее: 
SCT – разбросанная отдельная облачность;
BR – дымка (видимость от 1 до 9 км);

Авиационная погода в Раменское

Регион: 
Погода METAR: 
UUBW 221800Z 09004MPS 7000 -SN SCT010 BKN023 M04/M05 Q1012 R30/491032 TEMPO 2000 SN
Время наблюдения
2022-01-22T18:00:00Z
Температура C
-4.0
Точка росы
-5.0
Направление ветра
90
Скорость ветра (узлы)
8
Метео видимость
4.35
Облачность
SCT
BKN
Нижняя граница облачности (футы)
1000
2300
Явления погоды
-SN
Условия полета
MVFR
Аэропорт подробнее: 
SCT – разбросанная отдельная облачность; BKN – значительная (рассеянная, разорванная) облачность;
-SN – слабый снег;